Sulligent, Alabama
Current Conditions -  °F | °C
As of 12:15 PM on Wednesday 28 Jan 2015 (Local Time) from KM40 Reporting Station
Clear Clear  
Wind Chill: 57°   Ceiling: Unl
Heat Index: 57°   Visibility: 8mi
Dew Point: 41°   Wind: 3mph
Humidity: 55%   Direction: 20°NNE
Pressure: 30.3"   Gusts: NA
Location:  33.9°N, 88.13°W
Report Text: KM40 281815Z AUTO 02003KT 8SM CLR 14/05 A3030 RMK AO2
Loading
Personal Weather Stations






























Interactive Weather Map New forecast layout! Learn more

10-Day Weather Forecast

Advertisements
Track Severe Weather on mobile